createdAt,value
2017-08-01T00:01:04.938Z,94488.72
2017-08-01T00:03:32.701Z,94483.73
2017-08-01T00:06:00.486Z,94487.80
2017-08-01T00:08:28.214Z,94489.52
2017-08-01T00:10:56.037Z,94493.49
2017-08-01T00:13:23.810Z,94487.03
2017-08-01T00:15:51.612Z,94488.33
2017-08-01T00:18:19.381Z,94484.38
2017-08-01T00:20:47.928Z,94481.63
2017-08-01T00:23:15.774Z,94482.95
2017-08-01T00:25:43.813Z,94476.83
2017-08-01T00:28:11.524Z,94477.75
2017-08-01T00:30:39.221Z,94475.94
2017-08-01T00:33:08.320Z,94473.97
2017-08-01T00:35:37.179Z,94478.47
2017-08-01T00:38:05.008Z,94477.14
2017-08-01T00:40:32.803Z,94478.33
2017-08-01T00:43:01.965Z,94478.78
2017-08-01T00:45:30.823Z,94469.44
2017-08-01T00:48:00.766Z,94478.19
2017-08-01T00:50:29.155Z,94479.56
2017-08-01T00:52:58.076Z,94473.27
2017-08-01T00:55:26.378Z,94476.93
2017-08-01T00:57:54.152Z,94477.30
2017-08-01T01:00:21.947Z,94480.03
2017-08-01T01:02:50.359Z,94471.11
2017-08-01T01:05:19.935Z,94470.33
2017-08-01T01:07:49.893Z,94473.88
2017-08-01T01:10:17.692Z,94474.02
2017-08-01T01:12:45.437Z,94475.95
2017-08-01T01:15:13.212Z,94475.70
2017-08-01T01:17:41.684Z,94479.35
2017-08-01T01:20:11.966Z,94474.75
2017-08-01T01:22:40.584Z,94481.08
2017-08-01T01:25:09.866Z,94478.43
2017-08-01T01:27:38.339Z,94479.63
2017-08-01T01:30:07.408Z,94476.12
2017-08-01T01:32:35.232Z,94479.48
2017-08-01T01:35:03.811Z,94473.70
2017-08-01T01:37:31.798Z,94471.39
2017-08-01T01:39:59.562Z,94480.26
2017-08-01T01:42:27.608Z,94487.02
2017-08-01T01:44:55.498Z,94478.15
2017-08-01T01:47:23.264Z,94484.17
2017-08-01T01:49:51.018Z,94482.39
2017-08-01T01:52:18.952Z,94484.77
2017-08-01T01:54:47.474Z,94486.07
2017-08-01T01:57:16.059Z,94482.70
2017-08-01T01:59:43.842Z,94480.70
2017-08-01T02:02:11.550Z,94476.78
2017-08-01T02:04:39.314Z,94473.05
2017-08-01T02:07:07.020Z,94471.49
2017-08-01T02:09:34.805Z,94474.70
2017-08-01T02:12:02.522Z,94482.71
2017-08-01T02:14:31.415Z,94476.06
2017-08-01T02:16:59.189Z,94483.42
2017-08-01T02:19:26.941Z,94483.27
2017-08-01T02:21:54.885Z,94482.56
2017-08-01T02:24:22.673Z,94492.98
2017-08-01T02:26:50.485Z,94489.27
2017-08-01T02:29:18.238Z,94491.28
2017-08-01T02:31:47.096Z,94489.15
2017-08-01T02:34:14.977Z,94487.39
2017-08-01T02:36:43.878Z,94486.51
2017-08-01T02:39:11.844Z,94485.45
2017-08-01T02:41:39.609Z,94489.77
2017-08-01T02:44:08.483Z,94491.16
2017-08-01T02:46:36.202Z,94487.27
2017-08-01T02:49:04.023Z,94490.02
2017-08-01T02:51:31.740Z,94485.97
2017-08-01T02:53:59.511Z,94492.09
2017-08-01T02:56:29.495Z,94490.03
2017-08-01T02:58:57.283Z,94490.27
2017-08-01T03:01:25.903Z,94496.30
2017-08-01T03:03:54.791Z,94498.30
2017-08-01T03:06:22.611Z,94493.72
2017-08-01T03:08:53.887Z,94497.42
2017-08-01T03:11:21.653Z,94503.16
2017-08-01T03:13:49.706Z,94502.39
2017-08-01T03:16:17.469Z,94505.24
2017-08-01T03:18:46.039Z,94506.08
2017-08-01T03:21:13.788Z,94505.02
2017-08-01T03:23:42.257Z,94502.22
2017-08-01T03:26:09.987Z,94506.58
2017-08-01T03:28:38.493Z,94503.73
2017-08-01T03:31:06.281Z,94506.68
2017-08-01T03:33:34.624Z,94501.72
2017-08-01T03:36:02.380Z,94504.75
2017-08-01T03:38:30.713Z,94506.68
2017-08-01T03:40:58.401Z,94519.76
2017-08-01T03:43:26.187Z,94519.05
2017-08-01T03:45:54.090Z,94513.39
2017-08-01T03:48:21.763Z,94518.70
2017-08-01T03:50:50.718Z,94519.63
2017-08-01T03:53:18.433Z,94523.38
2017-08-01T03:55:46.991Z,94526.77
2017-08-01T03:58:15.945Z,94524.91
2017-08-01T04:00:43.790Z,94521.52
2017-08-01T04:03:11.531Z,94529.37
2017-08-01T04:05:39.347Z,94530.95
2017-08-01T04:08:07.066Z,94525.89
2017-08-01T04:10:35.584Z,94529.44
2017-08-01T04:13:04.399Z,94529.28
2017-08-01T04:15:32.247Z,94537.47
2017-08-01T04:18:00.848Z,94537.95
2017-08-01T04:20:29.958Z,94539.22
2017-08-01T04:22:57.664Z,94539.72
2017-08-01T04:25:25.368Z,94541.18
2017-08-01T04:27:54.136Z,94537.67
2017-08-01T04:30:21.908Z,94541.02
2017-08-01T04:32:49.692Z,94534.50
2017-08-01T04:35:17.459Z,94537.34
2017-08-01T04:37:46.291Z,94533.09
2017-08-01T04:40:13.994Z,94536.06
2017-08-01T04:42:42.735Z,94545.28
2017-08-01T04:45:10.457Z,94551.63
2017-08-01T04:47:38.496Z,94544.13
2017-08-01T04:50:06.496Z,94545.34
2017-08-01T04:52:34.196Z,94549.02
2017-08-01T04:55:02.838Z,94554.64
2017-08-01T04:57:35.420Z,94554.87
2017-08-01T05:00:03.393Z,94552.67
2017-08-01T05:02:31.124Z,94561.45
2017-08-01T05:05:00.961Z,94555.69
2017-08-01T05:07:28.773Z,94551.49
2017-08-01T05:09:57.435Z,94555.12
2017-08-01T05:12:26.353Z,94553.17
2017-08-01T05:14:54.038Z,94561.39
2017-08-01T05:17:21.826Z,94552.89
2017-08-01T05:19:49.932Z,94556.45
2017-08-01T05:22:17.685Z,94549.71
2017-08-01T05:24:45.517Z,94547.22
2017-08-01T05:27:13.282Z,94548.14
2017-08-01T05:29:42.262Z,94549.36
2017-08-01T05:32:09.989Z,94551.87
2017-08-01T05:34:37.744Z,94558.98
2017-08-01T05:37:06.314Z,94553.29
2017-08-01T05:39:34.277Z,94545.80
2017-08-01T05:42:02.020Z,94550.56
2017-08-01T05:44:29.751Z,94549.92
2017-08-01T05:46:58.111Z,94546.20
2017-08-01T05:49:26.918Z,94542.70
2017-08-01T05:51:54.873Z,94541.97
2017-08-01T05:54:23.138Z,94538.98
2017-08-01T05:56:50.880Z,94534.17
2017-08-01T05:59:18.631Z,94534.73
2017-08-01T06:01:46.702Z,94534.84
2017-08-01T06:04:14.425Z,94532.32
2017-08-01T06:06:42.193Z,94527.52
2017-08-01T06:09:09.979Z,94522.28
2017-08-01T06:11:37.768Z,94528.64
2017-08-01T06:14:05.557Z,94533.44
2017-08-01T06:16:33.384Z,94525.91
2017-08-01T06:19:01.098Z,94529.03
2017-08-01T06:21:28.852Z,94532.89
2017-08-01T06:23:56.647Z,94526.44
2017-08-01T06:26:24.357Z,94517.67
2017-08-01T06:28:52.248Z,94516.06
2017-08-01T06:31:20.032Z,94514.35
2017-08-01T06:33:47.818Z,94510.50
2017-08-01T06:36:15.540Z,94509.73
2017-08-01T06:38:43.387Z,94505.97
2017-08-01T06:41:11.073Z,94503.38
2017-08-01T06:43:38.786Z,94503.86
2017-08-01T06:46:06.658Z,94501.50
2017-08-01T06:48:34.401Z,94499.19
2017-08-01T06:51:02.120Z,94506.53
2017-08-01T06:53:29.883Z,94499.33
2017-08-01T06:55:57.650Z,94501.03
2017-08-01T06:58:25.384Z,94494.56
2017-08-01T07:00:53.137Z,94495.19
2017-08-01T07:03:20.854Z,94498.95
2017-08-01T07:05:48.556Z,94495.15
2017-08-01T07:08:16.351Z,94490.61
2017-08-01T07:10:44.141Z,94489.81
2017-08-01T07:13:11.851Z,94494.28
2017-08-01T07:15:39.693Z,94488.77
2017-08-01T07:18:07.572Z,94494.30
2017-08-01T07:20:35.301Z,94480.95
2017-08-01T07:23:03.006Z,94481.27
2017-08-01T07:25:30.848Z,94481.28
2017-08-01T07:27:59.041Z,94482.03
2017-08-01T07:30:26.721Z,94482.52
2017-08-01T07:32:54.481Z,94482.60
2017-08-01T07:35:22.257Z,94485.44
2017-08-01T07:37:50.008Z,94486.30
2017-08-01T07:40:17.796Z,94477.78
2017-08-01T07:42:45.567Z,94484.89
2017-08-01T07:45:13.351Z,94485.10
2017-08-01T07:47:41.158Z,94484.55
2017-08-01T07:50:08.879Z,94471.92
2017-08-01T07:52:36.677Z,94476.27
2017-08-01T07:55:04.387Z,94474.33
2017-08-01T07:57:32.098Z,94483.69
2017-08-01T07:59:59.874Z,94474.33
2017-08-01T08:02:27.769Z,94473.78
2017-08-01T08:04:55.495Z,94474.02
2017-08-01T08:07:23.269Z,94472.72
2017-08-01T08:09:51.027Z,94466.58
2017-08-01T08:12:18.743Z,94458.72
2017-08-01T08:14:46.467Z,94455.77
2017-08-01T08:17:15.366Z,94461.00
2017-08-01T08:19:43.147Z,94458.05
2017-08-01T08:22:10.890Z,94452.66
2017-08-01T08:24:38.636Z,94450.98
2017-08-01T08:27:06.385Z,94451.45
2017-08-01T08:29:34.204Z,94448.78
2017-08-01T08:32:01.939Z,94446.72
2017-08-01T08:34:29.667Z,94442.05
2017-08-01T08:36:57.427Z,94447.30
2017-08-01T08:39:25.165Z,94450.36
2017-08-01T08:41:52.975Z,94448.20
2017-08-01T08:44:20.725Z,94448.50
2017-08-01T08:46:48.444Z,94446.89
2017-08-01T08:49:16.188Z,94448.89
2017-08-01T08:51:43.912Z,94444.98
2017-08-01T08:54:11.672Z,94443.61
2017-08-01T08:56:39.513Z,94439.30
2017-08-01T08:59:07.229Z,94440.70
2017-08-01T09:01:34.912Z,94433.54
2017-08-01T09:04:02.684Z,94431.95
2017-08-01T09:06:30.432Z,94432.23
2017-08-01T09:08:58.299Z,94424.69
2017-08-01T09:11:26.011Z,94422.74
2017-08-01T09:13:53.698Z,94422.25
2017-08-01T09:16:21.455Z,94414.35
2017-08-01T09:18:49.141Z,94419.11
2017-08-01T09:21:16.862Z,94413.73
2017-08-01T09:23:44.637Z,94412.61
2017-08-01T09:26:12.353Z,94414.34
2017-08-01T09:28:40.543Z,94412.66
2017-08-01T09:31:08.268Z,94409.98
2017-08-01T09:33:35.984Z,94411.16
2017-08-01T09:36:03.747Z,94406.84
2017-08-01T09:38:31.467Z,94400.81
2017-08-01T09:40:59.273Z,94401.51
2017-08-01T09:43:27.057Z,94392.48
2017-08-01T09:45:54.749Z,94393.69
2017-08-01T09:48:22.520Z,94397.25
2017-08-01T09:50:50.313Z,94389.57
2017-08-01T09:53:18.229Z,94385.58
2017-08-01T09:55:45.934Z,94393.59
2017-08-01T09:58:13.649Z,94391.09
2017-08-01T10:00:41.435Z,94389.13
2017-08-01T10:03:09.225Z,94385.07
2017-08-01T10:05:36.964Z,94387.92
2017-08-01T10:08:04.829Z,94381.83
2017-08-01T10:10:32.530Z,94378.31
2017-08-01T10:13:00.907Z,94378.92
2017-08-01T10:15:28.673Z,94378.02
2017-08-01T10:17:56.483Z,94378.38
2017-08-01T10:20:24.295Z,94377.07
2017-08-01T10:22:52.005Z,94368.05
2017-08-01T10:25:19.764Z,94366.18
2017-08-01T10:27:47.602Z,94367.87
2017-08-01T10:30:15.414Z,94361.36
2017-08-01T10:32:43.223Z,94369.75
2017-08-01T10:35:11.020Z,94363.05
2017-08-01T10:37:38.919Z,94362.03
2017-08-01T10:40:06.719Z,94352.30
2017-08-01T10:42:34.496Z,94360.03
2017-08-01T10:45:02.276Z,94354.58
2017-08-01T10:47:30.123Z,94345.83
2017-08-01T10:49:57.814Z,94348.62
2017-08-01T10:52:25.665Z,94350.66
2017-08-01T10:54:53.365Z,94347.66
2017-08-01T10:57:21.153Z,94342.70
2017-08-01T10:59:48.899Z,94345.84
2017-08-01T11:02:16.652Z,94338.41
2017-08-01T11:04:44.410Z,94341.20
2017-08-01T11:07:12.113Z,94337.42
2017-08-01T11:09:39.815Z,94332.92
2017-08-01T11:12:07.599Z,94334.75
2017-08-01T11:14:35.308Z,94334.30
2017-08-01T11:17:03.588Z,94329.06
2017-08-01T11:19:31.340Z,94334.42
2017-08-01T11:21:59.135Z,94327.02
2017-08-01T11:24:26.848Z,94319.61
2017-08-01T11:26:54.620Z,94321.08
2017-08-01T11:29:22.389Z,94316.59
2017-08-01T11:31:50.505Z,94313.67
2017-08-01T11:34:18.296Z,94305.97
2017-08-01T11:36:46.233Z,94305.68
2017-08-01T11:39:13.957Z,94306.61
2017-08-01T11:41:41.720Z,94299.77
2017-08-01T11:44:09.509Z,94301.36
2017-08-01T11:46:37.238Z,94293.66
2017-08-01T11:49:05.042Z,94288.12
2017-08-01T11:51:33.869Z,94288.06
2017-08-01T11:54:01.647Z,94283.03
2017-08-01T11:56:29.391Z,94281.12
2017-08-01T11:58:57.162Z,94276.55
2017-08-01T12:01:24.900Z,94274.38
2017-08-01T12:03:52.707Z,94275.20
2017-08-01T12:06:20.516Z,94277.69
2017-08-01T12:08:48.373Z,94278.80
2017-08-01T12:11:16.216Z,94270.23
2017-08-01T12:13:43.951Z,94273.22
2017-08-01T12:16:11.724Z,94266.73
2017-08-01T12:18:39.531Z,94257.05
2017-08-01T12:21:07.255Z,94257.48
2017-08-01T12:23:34.954Z,94254.34
2017-08-01T12:26:02.728Z,94248.16
2017-08-01T12:28:30.434Z,94252.61
2017-08-01T12:30:58.386Z,94249.56
2017-08-01T12:33:26.157Z,94245.26
2017-08-01T12:35:53.912Z,94241.80
2017-08-01T12:38:21.691Z,94247.25
2017-08-01T12:40:49.482Z,94244.77
2017-08-01T12:43:17.217Z,94236.27
2017-08-01T12:45:45.701Z,94232.22
2017-08-01T12:48:13.541Z,94228.45
2017-08-01T12:50:41.299Z,94231.93
2017-08-01T12:53:09.229Z,94222.33
2017-08-01T12:55:36.986Z,94222.73
2017-08-01T12:58:04.687Z,94227.20
2017-08-01T13:00:32.463Z,94220.38
2017-08-01T13:03:00.161Z,94223.86
2017-08-01T13:05:27.990Z,94218.72
2017-08-01T13:07:55.782Z,94220.95
2017-08-01T13:10:23.557Z,94215.17
2017-08-01T13:12:51.263Z,94215.89
2017-08-01T13:15:19.029Z,94207.66
2017-08-01T13:17:46.816Z,94210.33
2017-08-01T13:20:15.617Z,94207.52
2017-08-01T13:22:43.426Z,94207.77
2017-08-01T13:25:11.204Z,94205.66
2017-08-01T13:27:39.032Z,94207.06
2017-08-01T13:30:06.834Z,94202.88
2017-08-01T13:32:34.536Z,94200.48
2017-08-01T13:35:02.339Z,94200.92
2017-08-01T13:37:30.201Z,94196.45
2017-08-01T13:39:57.895Z,94198.46
2017-08-01T13:42:25.660Z,94189.13
2017-08-01T13:44:53.392Z,94189.34
2017-08-01T13:47:21.184Z,94190.22
2017-08-01T13:49:49.268Z,94182.52
2017-08-01T13:52:16.977Z,94187.56
2017-08-01T13:54:44.691Z,94181.00
2017-08-01T13:57:12.475Z,94174.70
2017-08-01T13:59:40.258Z,94180.80
2017-08-01T14:02:07.977Z,94178.25
2017-08-01T14:04:35.933Z,94184.45
2017-08-01T14:07:03.753Z,94179.50
2017-08-01T14:09:31.498Z,94179.34
2017-08-01T14:11:59.407Z,94182.69
2017-08-01T14:14:27.098Z,94179.33
2017-08-01T14:16:54.824Z,94177.37
2017-08-01T14:19:22.595Z,94176.42
2017-08-01T14:21:50.297Z,94179.06
2017-08-01T14:24:18.089Z,94175.31
2017-08-01T14:26:45.828Z,94172.38
2017-08-01T14:29:13.593Z,94171.56
2017-08-01T14:31:41.330Z,94175.00
2017-08-01T14:34:09.120Z,94169.34
2017-08-01T14:36:36.947Z,94173.20
2017-08-01T14:39:04.993Z,94169.00
2017-08-01T14:41:32.668Z,94169.27
2017-08-01T14:44:00.395Z,94166.14
2017-08-01T14:46:28.188Z,94172.70
2017-08-01T14:48:56.011Z,94161.09
2017-08-01T14:51:23.770Z,94164.41
2017-08-01T14:53:51.575Z,94168.99
2017-08-01T14:56:19.364Z,94161.31
2017-08-01T14:58:47.242Z,94163.28
2017-08-01T15:01:14.939Z,94157.91
2017-08-01T15:03:42.735Z,94164.17
2017-08-01T15:06:10.465Z,94163.08
2017-08-01T15:08:38.175Z,94157.64
2017-08-01T15:11:05.969Z,94159.62
2017-08-01T15:13:33.687Z,94149.80
2017-08-01T15:16:02.043Z,94149.14
2017-08-01T15:18:29.862Z,94150.83
2017-08-01T15:20:57.586Z,94148.22
2017-08-01T15:23:25.274Z,94144.80
2017-08-01T15:25:54.526Z,94151.14
2017-08-01T15:28:22.327Z,94144.48
2017-08-01T15:30:51.275Z,94144.52
2017-08-01T15:33:19.048Z,94138.02
2017-08-01T15:35:46.888Z,94131.70
2017-08-01T15:38:14.759Z,94140.17
2017-08-01T15:40:42.556Z,94124.89
2017-08-01T15:43:10.292Z,94130.78
2017-08-01T15:45:38.203Z,94124.69
2017-08-01T15:48:05.974Z,94119.41
2017-08-01T15:50:33.923Z,94114.14
2017-08-01T15:53:01.701Z,94117.28
2017-08-01T15:55:29.502Z,94114.44
2017-08-01T15:57:57.386Z,94117.16
2017-08-01T16:00:25.188Z,94118.25
2017-08-01T16:02:52.998Z,94120.40
2017-08-01T16:05:20.905Z,94122.63
2017-08-01T16:07:48.758Z,94116.38
2017-08-01T16:10:16.579Z,94111.05
2017-08-01T16:12:45.277Z,94103.20
2017-08-01T16:15:14.380Z,94105.13
2017-08-01T16:17:43.254Z,94108.12
2017-08-01T16:20:11.454Z,94115.27
2017-08-01T16:22:39.251Z,94111.38
2017-08-01T16:25:07.183Z,94109.95
2017-08-01T16:27:35.036Z,94118.05
2017-08-01T16:30:02.868Z,94115.02
2017-08-01T16:32:30.672Z,94118.59
2017-08-01T16:34:58.511Z,94120.41
2017-08-01T16:37:27.162Z,94117.58
2017-08-01T16:39:55.093Z,94118.22
2017-08-01T16:42:23.033Z,94114.80
2017-08-01T16:44:50.906Z,94112.70
2017-08-01T16:47:18.791Z,94113.09
2017-08-01T16:49:46.666Z,94111.08
2017-08-01T16:52:14.460Z,94113.08
2017-08-01T16:54:43.208Z,94108.42
2017-08-01T16:57:11.045Z,94109.50
2017-08-01T16:59:38.838Z,94108.76
2017-08-01T17:02:06.590Z,94109.16
2017-08-01T17:04:34.461Z,94105.56
2017-08-01T17:07:02.257Z,94097.64
2017-08-01T17:09:30.086Z,94108.23
2017-08-01T17:11:57.914Z,94101.86
2017-08-01T17:14:25.782Z,94115.69
2017-08-01T17:16:53.569Z,94115.59
2017-08-01T17:19:21.422Z,94117.56
2017-08-01T17:21:49.986Z,94115.99
2017-08-01T17:24:17.711Z,94106.52
2017-08-01T17:26:45.537Z,94114.22
2017-08-01T17:29:13.285Z,94106.31
2017-08-01T17:31:41.084Z,94109.23
2017-08-01T17:34:08.903Z,94119.55
2017-08-01T17:36:36.689Z,94116.09
2017-08-01T17:39:04.652Z,94116.21
2017-08-01T17:41:32.545Z,94105.70
2017-08-01T17:44:00.367Z,94107.44
2017-08-01T17:46:28.135Z,94110.44
2017-08-01T17:48:55.960Z,94116.36
2017-08-01T17:51:23.710Z,94123.97
2017-08-01T17:53:51.530Z,94125.88
2017-08-01T17:56:19.235Z,94125.08
2017-08-01T17:58:47.018Z,94127.45
2017-08-01T18:01:15.983Z,94130.71
2017-08-01T18:03:43.695Z,94126.30
2017-08-01T18:06:11.557Z,94134.95
2017-08-01T18:08:39.315Z,94139.09
2017-08-01T18:11:07.137Z,94145.20
2017-08-01T18:13:35.771Z,94141.75
2017-08-01T18:16:03.517Z,94149.84
2017-08-01T18:18:31.373Z,94151.95
2017-08-01T18:20:59.130Z,94161.73
2017-08-01T18:23:26.905Z,94172.89
2017-08-01T18:25:54.704Z,94177.86
2017-08-01T18:28:22.590Z,94183.48
2017-08-01T18:30:52.682Z,94183.30
2017-08-01T18:33:20.609Z,94187.03
2017-08-01T18:35:48.423Z,94191.04
2017-08-01T18:38:16.240Z,94196.35
2017-08-01T18:40:44.565Z,94203.66
2017-08-01T18:43:12.389Z,94205.55
2017-08-01T18:45:40.275Z,94211.71
2017-08-01T18:48:09.132Z,94205.44
2017-08-01T18:50:37.039Z,94199.33
2017-08-01T18:53:04.861Z,94195.72
2017-08-01T18:55:35.245Z,94202.78
2017-08-01T18:58:03.199Z,94213.69
2017-08-01T19:00:31.362Z,94208.98
2017-08-01T19:02:59.194Z,94205.09
2017-08-01T19:05:27.991Z,94196.41
2017-08-01T19:07:58.835Z,94191.42
2017-08-01T19:10:27.872Z,94193.82
2017-08-01T19:12:57.165Z,94194.91
2017-08-01T19:15:25.615Z,94194.68
2017-08-01T19:17:53.501Z,94191.08
2017-08-01T19:20:21.690Z,94190.84
2017-08-01T19:22:49.945Z,94181.67
2017-08-01T19:25:18.240Z,94180.65
2017-08-01T19:27:47.015Z,94178.80
2017-08-01T19:30:14.875Z,94188.65
2017-08-01T19:32:42.838Z,94195.63
2017-08-01T19:35:11.052Z,94203.77
2017-08-01T19:37:39.107Z,94200.20
2017-08-01T19:40:07.026Z,94196.66
2017-08-01T19:42:34.786Z,94196.59
2017-08-01T19:45:02.532Z,94192.77
2017-08-01T19:47:30.420Z,94195.69
2017-08-01T19:49:58.248Z,94190.02
2017-08-01T19:52:25.976Z,94198.82
2017-08-01T19:54:53.759Z,94192.50
2017-08-01T19:57:21.585Z,94194.38
2017-08-01T19:59:49.321Z,94203.16
2017-08-01T20:02:17.080Z,94202.97
2017-08-01T20:04:44.897Z,94208.91
2017-08-01T20:07:12.632Z,94213.24
2017-08-01T20:09:40.479Z,94214.11
2017-08-01T20:12:08.261Z,94221.38
2017-08-01T20:14:36.068Z,94226.93
2017-08-01T20:17:04.126Z,94236.80
2017-08-01T20:19:32.070Z,94249.70
2017-08-01T20:21:59.883Z,94242.48
2017-08-01T20:24:27.652Z,94241.94
2017-08-01T20:26:55.455Z,94245.60
2017-08-01T20:29:23.265Z,94264.47
2017-08-01T20:31:50.982Z,94268.48
2017-08-01T20:34:18.776Z,94280.20
2017-08-01T20:36:46.632Z,94291.20
2017-08-01T20:39:14.433Z,94299.94
2017-08-01T20:41:42.290Z,94300.82
2017-08-01T20:44:10.110Z,94305.48
2017-08-01T20:46:38.359Z,94304.95
2017-08-01T20:49:06.136Z,94297.76
2017-08-01T20:51:33.893Z,94295.64
2017-08-01T20:54:01.749Z,94307.16
2017-08-01T20:56:29.676Z,94311.62
2017-08-01T20:58:57.473Z,94315.04
2017-08-01T21:01:25.194Z,94318.38
2017-08-01T21:03:52.933Z,94320.49
2017-08-01T21:06:20.774Z,94319.28
2017-08-01T21:08:48.623Z,94324.64
2017-08-01T21:11:17.167Z,94328.88
2017-08-01T21:13:45.066Z,94332.63
2017-08-01T21:16:12.826Z,94339.03
2017-08-01T21:18:40.630Z,94341.11
2017-08-01T21:21:08.322Z,94345.37
2017-08-01T21:23:37.359Z,94344.64
2017-08-01T21:26:05.123Z,94356.77
2017-08-01T21:28:32.901Z,94356.13
2017-08-01T21:31:00.790Z,94347.70
2017-08-01T21:33:28.648Z,94350.52
2017-08-01T21:35:56.407Z,94345.05
2017-08-01T21:38:24.308Z,94351.91
2017-08-01T21:40:52.089Z,94350.75
2017-08-01T21:43:19.790Z,94359.20
2017-08-01T21:45:47.586Z,94360.14
2017-08-01T21:48:15.394Z,94356.47
2017-08-01T21:50:43.275Z,94355.94
2017-08-01T21:53:11.045Z,94363.61
2017-08-01T21:55:38.902Z,94373.31
2017-08-01T21:58:06.736Z,94386.86
2017-08-01T22:00:34.513Z,94398.20
2017-08-01T22:03:02.229Z,94404.69
2017-08-01T22:05:30.022Z,94413.90
2017-08-01T22:07:57.774Z,94431.11
2017-08-01T22:10:25.606Z,94432.13
2017-08-01T22:12:53.499Z,94432.55
2017-08-01T22:15:21.319Z,94428.34
2017-08-01T22:17:49.070Z,94425.91
2017-08-01T22:20:16.807Z,94434.38
2017-08-01T22:22:45.524Z,94421.41
2017-08-01T22:25:13.294Z,94425.34
2017-08-01T22:27:41.055Z,94420.94
2017-08-01T22:30:08.877Z,94414.35
2017-08-01T22:32:36.713Z,94409.95
2017-08-01T22:35:05.481Z,94399.27
2017-08-01T22:37:33.248Z,94394.16
2017-08-01T22:40:00.974Z,94395.48
2017-08-01T22:42:28.872Z,94393.33
2017-08-01T22:44:56.588Z,94386.84
2017-08-01T22:47:24.363Z,94380.88
2017-08-01T22:49:52.776Z,94388.16
2017-08-01T22:52:20.480Z,94388.20
2017-08-01T22:54:48.265Z,94400.57
2017-08-01T22:57:16.016Z,94397.72
2017-08-01T22:59:43.844Z,94394.91
2017-08-01T23:02:11.604Z,94398.63
2017-08-01T23:04:39.341Z,94403.43
2017-08-01T23:07:07.090Z,94397.03
2017-08-01T23:09:35.052Z,94391.37
2017-08-01T23:12:02.861Z,94390.58
2017-08-01T23:14:30.545Z,94388.81
2017-08-01T23:16:58.336Z,94388.30
2017-08-01T23:19:26.109Z,94388.92
2017-08-01T23:21:53.953Z,94381.81
2017-08-01T23:24:21.696Z,94382.14
2017-08-01T23:26:49.472Z,94372.45
2017-08-01T23:29:17.236Z,94372.26
2017-08-01T23:31:45.051Z,94377.40
2017-08-01T23:34:12.823Z,94380.02
2017-08-01T23:36:40.516Z,94392.53
2017-08-01T23:39:08.339Z,94391.47
2017-08-01T23:41:36.045Z,94400.12
2017-08-01T23:44:03.804Z,94400.11
2017-08-01T23:46:31.513Z,94391.30
2017-08-01T23:48:59.263Z,94392.84
2017-08-01T23:51:27.168Z,94396.03
2017-08-01T23:53:54.914Z,94402.02
2017-08-01T23:56:22.692Z,94395.20
2017-08-01T23:58:50.529Z,94394.30
